Oteneagen, Minnesota
Current Conditions -  °F | °C
As of 3:13 AM on Monday 24 Nov 2014 (Local Time) from KFOZ Reporting Station
Unknown Precip Unknown Precip  
Wind Chill: 19°   Ceiling: 300
Heat Index: 27°   Visibility: 5mi
Dew Point: 25°   Wind: 7mph
Humidity: 93%   Direction: 310°NW
Pressure: 29.35"   Gusts: NA
Location:  47.4603°N, 94.029°W
Report Text: KFOZ 240913Z AUTO 31006KT 5SM UP OVC003 M03/M04 A2935 RMK AO2
Loading
Personal Weather Stations






























Interactive Weather Map New forecast layout! Learn more

10-Day Weather Forecast

Advertisements
Track Severe Weather on mobile